sensor_id;sensor_type;location;lat;lon;timestamp;P1;durP1;ratioP1;P2;durP2;ratioP2
20721;SDS011;10522;52.198;9.890;2023-04-06T00:01:33;13.27;;;8.40;;
20721;SDS011;10522;52.198;9.890;2023-04-06T00:03:59;16.17;;;8.43;;
20721;SDS011;10522;52.198;9.890;2023-04-06T00:06:25;12.73;;;8.83;;
20721;SDS011;10522;52.198;9.890;2023-04-06T00:08:51;12.63;;;8.17;;
20721;SDS011;10522;52.198;9.890;2023-04-06T00:11:17;10.33;;;7.93;;
20721;SDS011;10522;52.198;9.890;2023-04-06T00:13:43;11.63;;;7.60;;
20721;SDS011;10522;52.198;9.890;2023-04-06T00:16:08;16.73;;;7.93;;
20721;SDS011;10522;52.198;9.890;2023-04-06T00:18:34;11.80;;;7.57;;
20721;SDS011;10522;52.198;9.890;2023-04-06T00:20:59;13.77;;;7.17;;
20721;SDS011;10522;52.198;9.890;2023-04-06T00:23:25;12.30;;;7.87;;
20721;SDS011;10522;52.198;9.890;2023-04-06T00:25:51;12.37;;;7.23;;
20721;SDS011;10522;52.198;9.890;2023-04-06T00:28:16;12.30;;;7.13;;
20721;SDS011;10522;52.198;9.890;2023-04-06T00:30:42;9.93;;;6.87;;
20721;SDS011;10522;52.198;9.890;2023-04-06T00:33:07;9.10;;;6.00;;
20721;SDS011;10522;52.198;9.890;2023-04-06T00:35:34;9.80;;;6.13;;
20721;SDS011;10522;52.198;9.890;2023-04-06T00:38:00;9.40;;;6.67;;
20721;SDS011;10522;52.198;9.890;2023-04-06T00:40:25;7.23;;;5.30;;
20721;SDS011;10522;52.198;9.890;2023-04-06T00:42:53;9.40;;;5.77;;
20721;SDS011;10522;52.198;9.890;2023-04-06T00:45:19;11.03;;;7.23;;
20721;SDS011;10522;52.198;9.890;2023-04-06T00:47:45;11.13;;;7.13;;
20721;SDS011;10522;52.198;9.890;2023-04-06T00:50:10;12.07;;;7.80;;
20721;SDS011;10522;52.198;9.890;2023-04-06T00:52:36;10.63;;;7.67;;
20721;SDS011;10522;52.198;9.890;2023-04-06T00:55:02;12.50;;;8.17;;
20721;SDS011;10522;52.198;9.890;2023-04-06T00:57:28;11.53;;;8.67;;
20721;SDS011;10522;52.198;9.890;2023-04-06T00:59:54;17.57;;;8.57;;
20721;SDS011;10522;52.198;9.890;2023-04-06T01:02:20;12.23;;;8.50;;
20721;SDS011;10522;52.198;9.890;2023-04-06T01:04:45;14.60;;;7.97;;
20721;SDS011;10522;52.198;9.890;2023-04-06T01:07:11;11.37;;;7.53;;
20721;SDS011;10522;52.198;9.890;2023-04-06T01:09:37;11.10;;;7.00;;
20721;SDS011;10522;52.198;9.890;2023-04-06T01:12:02;12.10;;;8.00;;
20721;SDS011;10522;52.198;9.890;2023-04-06T01:14:28;13.27;;;7.20;;
20721;SDS011;10522;52.198;9.890;2023-04-06T01:16:54;12.43;;;7.43;;
20721;SDS011;10522;52.198;9.890;2023-04-06T01:19:22;10.87;;;6.73;;
20721;SDS011;10522;52.198;9.890;2023-04-06T01:21:48;10.53;;;6.90;;
20721;SDS011;10522;52.198;9.890;2023-04-06T01:24:15;8.37;;;6.30;;
20721;SDS011;10522;52.198;9.890;2023-04-06T01:26:40;11.33;;;6.57;;
20721;SDS011;10522;52.198;9.890;2023-04-06T01:29:09;10.03;;;6.80;;
20721;SDS011;10522;52.198;9.890;2023-04-06T01:31:34;10.67;;;6.53;;
20721;SDS011;10522;52.198;9.890;2023-04-06T01:34:00;9.77;;;6.70;;
20721;SDS011;10522;52.198;9.890;2023-04-06T01:36:26;10.07;;;7.07;;
20721;SDS011;10522;52.198;9.890;2023-04-06T01:38:51;9.20;;;6.83;;
20721;SDS011;10522;52.198;9.890;2023-04-06T01:41:17;9.93;;;6.53;;
20721;SDS011;10522;52.198;9.890;2023-04-06T01:43:43;10.70;;;6.43;;
20721;SDS011;10522;52.198;9.890;2023-04-06T01:46:09;7.53;;;6.30;;
20721;SDS011;10522;52.198;9.890;2023-04-06T01:48:35;9.43;;;6.40;;
20721;SDS011;10522;52.198;9.890;2023-04-06T01:51:01;10.70;;;6.77;;
20721;SDS011;10522;52.198;9.890;2023-04-06T01:53:27;9.80;;;6.03;;
20721;SDS011;10522;52.198;9.890;2023-04-06T01:55:52;11.80;;;7.20;;
20721;SDS011;10522;52.198;9.890;2023-04-06T01:58:18;8.40;;;6.23;;
20721;SDS011;10522;52.198;9.890;2023-04-06T02:00:43;7.73;;;6.17;;
20721;SDS011;10522;52.198;9.890;2023-04-06T02:03:09;10.07;;;6.80;;
20721;SDS011;10522;52.198;9.890;2023-04-06T02:05:35;11.07;;;6.70;;
20721;SDS011;10522;52.198;9.890;2023-04-06T02:08:04;10.37;;;6.60;;
20721;SDS011;10522;52.198;9.890;2023-04-06T02:10:30;12.20;;;7.03;;
20721;SDS011;10522;52.198;9.890;2023-04-06T02:12:56;11.30;;;6.17;;
20721;SDS011;10522;52.198;9.890;2023-04-06T02:15:22;9.33;;;5.87;;
20721;SDS011;10522;52.198;9.890;2023-04-06T02:17:47;8.50;;;5.43;;
20721;SDS011;10522;52.198;9.890;2023-04-06T02:20:13;10.67;;;5.60;;
20721;SDS011;10522;52.198;9.890;2023-04-06T02:22:39;12.90;;;6.77;;
20721;SDS011;10522;52.198;9.890;2023-04-06T02:25:05;10.53;;;5.87;;
20721;SDS011;10522;52.198;9.890;2023-04-06T02:27:31;6.70;;;5.00;;
20721;SDS011;10522;52.198;9.890;2023-04-06T02:29:56;8.67;;;4.70;;
20721;SDS011;10522;52.198;9.890;2023-04-06T02:32:22;10.33;;;5.63;;
20721;SDS011;10522;52.198;9.890;2023-04-06T02:34:47;12.03;;;5.47;;
20721;SDS011;10522;52.198;9.890;2023-04-06T02:37:13;8.03;;;4.33;;
20721;SDS011;10522;52.198;9.890;2023-04-06T02:39:39;6.87;;;4.67;;
20721;SDS011;10522;52.198;9.890;2023-04-06T02:42:05;8.13;;;4.97;;
20721;SDS011;10522;52.198;9.890;2023-04-06T02:44:31;5.93;;;3.80;;
20721;SDS011;10522;52.198;9.890;2023-04-06T02:46:57;6.23;;;4.40;;
20721;SDS011;10522;52.198;9.890;2023-04-06T02:49:22;7.57;;;4.07;;
20721;SDS011;10522;52.198;9.890;2023-04-06T02:51:48;8.30;;;4.60;;
20721;SDS011;10522;52.198;9.890;2023-04-06T02:54:13;5.90;;;4.13;;
20721;SDS011;10522;52.198;9.890;2023-04-06T02:56:39;5.70;;;4.37;;
20721;SDS011;10522;52.198;9.890;2023-04-06T02:59:05;7.60;;;4.23;;
20721;SDS011;10522;52.198;9.890;2023-04-06T03:01:30;6.57;;;4.30;;
20721;SDS011;10522;52.198;9.890;2023-04-06T03:03:56;4.63;;;3.70;;
20721;SDS011;10522;52.198;9.890;2023-04-06T03:06:22;5.30;;;3.70;;
20721;SDS011;10522;52.198;9.890;2023-04-06T03:08:47;5.30;;;3.90;;
20721;SDS011;10522;52.198;9.890;2023-04-06T03:11:13;8.10;;;5.53;;
20721;SDS011;10522;52.198;9.890;2023-04-06T03:13:38;11.00;;;6.67;;
20721;SDS011;10522;52.198;9.890;2023-04-06T03:16:05;8.80;;;5.93;;
20721;SDS011;10522;52.198;9.890;2023-04-06T03:18:31;11.53;;;6.90;;
20721;SDS011;10522;52.198;9.890;2023-04-06T03:20:57;13.50;;;8.07;;
20721;SDS011;10522;52.198;9.890;2023-04-06T03:23:22;15.80;;;8.97;;
20721;SDS011;10522;52.198;9.890;2023-04-06T03:25:48;14.87;;;8.73;;
20721;SDS011;10522;52.198;9.890;2023-04-06T03:28:14;14.50;;;9.13;;
20721;SDS011;10522;52.198;9.890;2023-04-06T03:30:41;12.43;;;8.10;;
20721;SDS011;10522;52.198;9.890;2023-04-06T03:33:06;10.70;;;7.70;;
20721;SDS011;10522;52.198;9.890;2023-04-06T03:35:32;12.63;;;8.00;;
20721;SDS011;10522;52.198;9.890;2023-04-06T03:37:58;14.07;;;7.93;;
20721;SDS011;10522;52.198;9.890;2023-04-06T03:40:23;16.00;;;8.50;;
20721;SDS011;10522;52.198;9.890;2023-04-06T03:42:49;13.90;;;7.73;;
20721;SDS011;10522;52.198;9.890;2023-04-06T03:45:15;14.30;;;8.53;;
20721;SDS011;10522;52.198;9.890;2023-04-06T03:47:41;14.30;;;8.03;;
20721;SDS011;10522;52.198;9.890;2023-04-06T03:50:07;13.00;;;7.43;;
20721;SDS011;10522;52.198;9.890;2023-04-06T03:52:34;14.53;;;7.20;;
20721;SDS011;10522;52.198;9.890;2023-04-06T03:55:01;10.93;;;7.17;;
20721;SDS011;10522;52.198;9.890;2023-04-06T03:57:27;11.57;;;7.30;;
20721;SDS011;10522;52.198;9.890;2023-04-06T03:59:52;11.60;;;6.80;;
20721;SDS011;10522;52.198;9.890;2023-04-06T04:02:18;12.40;;;7.77;;
20721;SDS011;10522;52.198;9.890;2023-04-06T04:07:18;10.17;;;7.13;;
20721;SDS011;10522;52.198;9.890;2023-04-06T04:09:43;13.60;;;8.33;;
20721;SDS011;10522;52.198;9.890;2023-04-06T04:12:09;10.77;;;7.13;;
20721;SDS011;10522;52.198;9.890;2023-04-06T04:14:35;10.33;;;7.13;;
20721;SDS011;10522;52.198;9.890;2023-04-06T04:17:00;12.50;;;6.97;;
20721;SDS011;10522;52.198;9.890;2023-04-06T04:19:26;10.63;;;7.40;;
20721;SDS011;10522;52.198;9.890;2023-04-06T04:21:51;11.63;;;6.87;;
20721;SDS011;10522;52.198;9.890;2023-04-06T04:24:17;10.07;;;7.00;;
20721;SDS011;10522;52.198;9.890;2023-04-06T04:26:42;12.17;;;7.70;;
20721;SDS011;10522;52.198;9.890;2023-04-06T04:29:09;8.97;;;6.70;;
20721;SDS011;10522;52.198;9.890;2023-04-06T04:31:35;14.80;;;7.60;;
20721;SDS011;10522;52.198;9.890;2023-04-06T04:34:00;15.77;;;7.80;;
20721;SDS011;10522;52.198;9.890;2023-04-06T04:36:26;10.20;;;6.70;;
20721;SDS011;10522;52.198;9.890;2023-04-06T04:38:52;12.03;;;7.20;;
20721;SDS011;10522;52.198;9.890;2023-04-06T04:41:17;9.93;;;7.27;;
20721;SDS011;10522;52.198;9.890;2023-04-06T04:43:43;10.80;;;7.30;;
20721;SDS011;10522;52.198;9.890;2023-04-06T04:46:09;11.27;;;6.97;;
20721;SDS011;10522;52.198;9.890;2023-04-06T04:48:35;12.30;;;7.70;;
20721;SDS011;10522;52.198;9.890;2023-04-06T04:51:01;14.03;;;7.53;;
20721;SDS011;10522;52.198;9.890;2023-04-06T04:53:27;10.47;;;7.73;;
20721;SDS011;10522;52.198;9.890;2023-04-06T04:55:52;12.80;;;7.73;;
20721;SDS011;10522;52.198;9.890;2023-04-06T04:58:18;12.23;;;8.03;;
20721;SDS011;10522;52.198;9.890;2023-04-06T05:00:45;16.80;;;9.07;;
20721;SDS011;10522;52.198;9.890;2023-04-06T05:03:17;12.87;;;8.33;;
20721;SDS011;10522;52.198;9.890;2023-04-06T05:05:46;10.80;;;7.63;;
20721;SDS011;10522;52.198;9.890;2023-04-06T05:08:12;11.13;;;7.33;;
20721;SDS011;10522;52.198;9.890;2023-04-06T05:10:37;12.67;;;7.47;;
20721;SDS011;10522;52.198;9.890;2023-04-06T05:13:03;15.03;;;8.17;;
20721;SDS011;10522;52.198;9.890;2023-04-06T05:15:29;11.83;;;7.67;;
20721;SDS011;10522;52.198;9.890;2023-04-06T05:17:55;12.90;;;7.27;;
20721;SDS011;10522;52.198;9.890;2023-04-06T05:20:20;13.60;;;7.33;;
20721;SDS011;10522;52.198;9.890;2023-04-06T05:22:46;14.87;;;8.03;;
20721;SDS011;10522;52.198;9.890;2023-04-06T05:25:12;12.67;;;7.70;;
20721;SDS011;10522;52.198;9.890;2023-04-06T05:27:38;13.07;;;8.07;;
20721;SDS011;10522;52.198;9.890;2023-04-06T05:30:05;16.37;;;9.10;;
20721;SDS011;10522;52.198;9.890;2023-04-06T05:32:31;11.90;;;7.63;;
20721;SDS011;10522;52.198;9.890;2023-04-06T05:34:57;13.63;;;7.80;;
20721;SDS011;10522;52.198;9.890;2023-04-06T05:37:22;12.47;;;8.03;;
20721;SDS011;10522;52.198;9.890;2023-04-06T05:39:48;11.57;;;7.67;;
20721;SDS011;10522;52.198;9.890;2023-04-06T05:42:13;13.50;;;7.13;;
20721;SDS011;10522;52.198;9.890;2023-04-06T05:44:40;11.43;;;7.37;;
20721;SDS011;10522;52.198;9.890;2023-04-06T05:47:05;11.20;;;7.63;;
20721;SDS011;10522;52.198;9.890;2023-04-06T05:49:31;14.77;;;8.57;;
20721;SDS011;10522;52.198;9.890;2023-04-06T05:51:57;13.67;;;8.03;;
20721;SDS011;10522;52.198;9.890;2023-04-06T05:54:22;12.13;;;7.97;;
20721;SDS011;10522;52.198;9.890;2023-04-06T05:56:48;13.33;;;8.00;;
20721;SDS011;10522;52.198;9.890;2023-04-06T05:59:13;15.97;;;8.43;;
20721;SDS011;10522;52.198;9.890;2023-04-06T06:01:40;11.83;;;7.90;;
20721;SDS011;10522;52.198;9.890;2023-04-06T06:04:05;11.23;;;7.97;;
20721;SDS011;10522;52.198;9.890;2023-04-06T06:06:32;14.93;;;7.83;;
20721;SDS011;10522;52.198;9.890;2023-04-06T06:08:57;13.37;;;8.17;;
20721;SDS011;10522;52.198;9.890;2023-04-06T06:11:25;15.30;;;8.27;;
20721;SDS011;10522;52.198;9.890;2023-04-06T06:13:51;18.40;;;7.93;;
20721;SDS011;10522;52.198;9.890;2023-04-06T06:16:17;12.47;;;7.87;;
20721;SDS011;10522;52.198;9.890;2023-04-06T06:18:43;10.20;;;6.97;;
20721;SDS011;10522;52.198;9.890;2023-04-06T06:21:09;10.60;;;7.37;;
20721;SDS011;10522;52.198;9.890;2023-04-06T06:23:37;13.47;;;7.47;;
20721;SDS011;10522;52.198;9.890;2023-04-06T06:26:03;15.37;;;7.30;;
20721;SDS011;10522;52.198;9.890;2023-04-06T06:28:29;11.47;;;6.77;;
20721;SDS011;10522;52.198;9.890;2023-04-06T06:30:55;9.27;;;6.13;;
20721;SDS011;10522;52.198;9.890;2023-04-06T06:33:20;9.40;;;6.57;;
20721;SDS011;10522;52.198;9.890;2023-04-06T06:35:46;10.60;;;5.30;;
20721;SDS011;10522;52.198;9.890;2023-04-06T06:38:12;9.93;;;5.33;;
20721;SDS011;10522;52.198;9.890;2023-04-06T06:40:37;11.80;;;5.60;;
20721;SDS011;10522;52.198;9.890;2023-04-06T06:43:03;9.83;;;6.30;;
20721;SDS011;10522;52.198;9.890;2023-04-06T06:45:28;10.00;;;5.73;;
20721;SDS011;10522;52.198;9.890;2023-04-06T06:47:54;8.33;;;5.23;;
20721;SDS011;10522;52.198;9.890;2023-04-06T06:50:20;8.87;;;5.10;;
20721;SDS011;10522;52.198;9.890;2023-04-06T06:52:45;8.80;;;6.20;;
20721;SDS011;10522;52.198;9.890;2023-04-06T06:55:11;10.43;;;5.83;;
20721;SDS011;10522;52.198;9.890;2023-04-06T06:57:37;15.17;;;6.37;;
20721;SDS011;10522;52.198;9.890;2023-04-06T07:00:03;11.17;;;7.10;;
20721;SDS011;10522;52.198;9.890;2023-04-06T07:02:30;9.83;;;5.70;;
20721;SDS011;10522;52.198;9.890;2023-04-06T07:04:56;8.20;;;5.30;;
20721;SDS011;10522;52.198;9.890;2023-04-06T07:07:22;9.07;;;5.70;;
20721;SDS011;10522;52.198;9.890;2023-04-06T07:09:47;10.47;;;5.73;;
20721;SDS011;10522;52.198;9.890;2023-04-06T07:12:13;10.03;;;5.33;;
20721;SDS011;10522;52.198;9.890;2023-04-06T07:14:38;8.87;;;5.80;;
20721;SDS011;10522;52.198;9.890;2023-04-06T07:17:04;8.63;;;4.73;;
20721;SDS011;10522;52.198;9.890;2023-04-06T07:19:32;8.07;;;5.20;;
20721;SDS011;10522;52.198;9.890;2023-04-06T07:21:58;9.93;;;5.37;;
20721;SDS011;10522;52.198;9.890;2023-04-06T07:24:24;8.20;;;5.03;;
20721;SDS011;10522;52.198;9.890;2023-04-06T07:26:49;8.33;;;5.13;;
20721;SDS011;10522;52.198;9.890;2023-04-06T07:29:15;8.67;;;5.50;;
20721;SDS011;10522;52.198;9.890;2023-04-06T07:31:42;10.10;;;4.83;;
20721;SDS011;10522;52.198;9.890;2023-04-06T07:34:08;9.23;;;5.00;;
20721;SDS011;10522;52.198;9.890;2023-04-06T07:36:34;7.43;;;5.60;;
20721;SDS011;10522;52.198;9.890;2023-04-06T07:38:59;8.80;;;6.27;;
20721;SDS011;10522;52.198;9.890;2023-04-06T07:41:25;6.03;;;5.07;;
20721;SDS011;10522;52.198;9.890;2023-04-06T07:43:51;9.13;;;5.37;;
20721;SDS011;10522;52.198;9.890;2023-04-06T07:46:17;10.00;;;5.83;;
20721;SDS011;10522;52.198;9.890;2023-04-06T07:48:44;7.77;;;5.47;;
20721;SDS011;10522;52.198;9.890;2023-04-06T07:51:10;7.13;;;5.17;;
20721;SDS011;10522;52.198;9.890;2023-04-06T07:53:39;9.83;;;5.43;;
20721;SDS011;10522;52.198;9.890;2023-04-06T07:56:04;8.53;;;5.90;;
20721;SDS011;10522;52.198;9.890;2023-04-06T07:58:30;7.07;;;5.00;;
20721;SDS011;10522;52.198;9.890;2023-04-06T08:00:57;8.60;;;5.60;;
20721;SDS011;10522;52.198;9.890;2023-04-06T08:03:23;8.90;;;5.77;;
20721;SDS011;10522;52.198;9.890;2023-04-06T08:05:51;9.87;;;5.80;;
20721;SDS011;10522;52.198;9.890;2023-04-06T08:08:21;11.27;;;5.93;;
20721;SDS011;10522;52.198;9.890;2023-04-06T08:10:55;8.93;;;5.77;;
20721;SDS011;10522;52.198;9.890;2023-04-06T08:13:34;6.37;;;5.30;;
20721;SDS011;10522;52.198;9.890;2023-04-06T08:16:12;8.03;;;5.37;;
20721;SDS011;10522;52.198;9.890;2023-04-06T08:18:38;6.53;;;5.37;;
20721;SDS011;10522;52.198;9.890;2023-04-06T08:21:03;11.37;;;5.70;;
20721;SDS011;10522;52.198;9.890;2023-04-06T08:23:29;19.43;;;5.63;;
20721;SDS011;10522;52.198;9.890;2023-04-06T08:25:55;12.20;;;7.80;;
20721;SDS011;10522;52.198;9.890;2023-04-06T08:28:20;7.13;;;4.70;;
20721;SDS011;10522;52.198;9.890;2023-04-06T08:30:46;7.73;;;5.77;;
20721;SDS011;10522;52.198;9.890;2023-04-06T08:33:12;9.57;;;5.70;;
20721;SDS011;10522;52.198;9.890;2023-04-06T08:35:38;11.07;;;5.47;;
20721;SDS011;10522;52.198;9.890;2023-04-06T08:38:03;7.73;;;5.73;;
20721;SDS011;10522;52.198;9.890;2023-04-06T08:40:29;6.47;;;5.23;;
20721;SDS011;10522;52.198;9.890;2023-04-06T08:42:56;7.70;;;5.87;;
20721;SDS011;10522;52.198;9.890;2023-04-06T08:45:24;8.50;;;5.47;;
20721;SDS011;10522;52.198;9.890;2023-04-06T08:47:50;9.47;;;5.90;;
20721;SDS011;10522;52.198;9.890;2023-04-06T08:50:17;7.67;;;5.43;;
20721;SDS011;10522;52.198;9.890;2023-04-06T08:52:45;9.40;;;5.80;;
20721;SDS011;10522;52.198;9.890;2023-04-06T08:55:15;9.87;;;5.80;;
20721;SDS011;10522;52.198;9.890;2023-04-06T08:57:41;7.70;;;5.60;;
20721;SDS011;10522;52.198;9.890;2023-04-06T09:00:09;9.33;;;5.83;;
20721;SDS011;10522;52.198;9.890;2023-04-06T09:02:38;9.87;;;5.40;;
20721;SDS011;10522;52.198;9.890;2023-04-06T09:05:06;11.97;;;5.63;;
20721;SDS011;10522;52.198;9.890;2023-04-06T09:07:33;10.93;;;6.33;;
20721;SDS011;10522;52.198;9.890;2023-04-06T09:09:59;12.93;;;6.23;;
20721;SDS011;10522;52.198;9.890;2023-04-06T09:12:28;8.67;;;5.60;;
20721;SDS011;10522;52.198;9.890;2023-04-06T09:14:55;10.23;;;5.57;;
20721;SDS011;10522;52.198;9.890;2023-04-06T09:17:22;10.23;;;5.50;;
20721;SDS011;10522;52.198;9.890;2023-04-06T09:19:48;8.90;;;5.17;;
20721;SDS011;10522;52.198;9.890;2023-04-06T09:22:18;7.67;;;5.50;;
20721;SDS011;10522;52.198;9.890;2023-04-06T09:24:47;11.23;;;6.40;;
20721;SDS011;10522;52.198;9.890;2023-04-06T09:27:15;10.13;;;5.00;;
20721;SDS011;10522;52.198;9.890;2023-04-06T09:29:41;9.23;;;5.47;;
20721;SDS011;10522;52.198;9.890;2023-04-06T09:32:07;7.63;;;5.27;;
20721;SDS011;10522;52.198;9.890;2023-04-06T09:34:39;9.10;;;5.30;;
20721;SDS011;10522;52.198;9.890;2023-04-06T09:37:11;8.20;;;5.13;;
20721;SDS011;10522;52.198;9.890;2023-04-06T09:39:38;10.67;;;5.63;;
20721;SDS011;10522;52.198;9.890;2023-04-06T09:42:04;9.53;;;5.13;;
20721;SDS011;10522;52.198;9.890;2023-04-06T09:44:29;8.90;;;5.20;;
20721;SDS011;10522;52.198;9.890;2023-04-06T09:46:55;9.20;;;5.47;;
20721;SDS011;10522;52.198;9.890;2023-04-06T09:49:21;9.80;;;5.50;;
20721;SDS011;10522;52.198;9.890;2023-04-06T09:51:54;7.53;;;5.27;;
20721;SDS011;10522;52.198;9.890;2023-04-06T09:54:23;7.83;;;5.23;;
20721;SDS011;10522;52.198;9.890;2023-04-06T09:56:56;7.40;;;5.10;;
20721;SDS011;10522;52.198;9.890;2023-04-06T10:07:41;8.67;;;5.27;;
20721;SDS011;10522;52.198;9.890;2023-04-06T10:10:07;11.63;;;5.37;;
20721;SDS011;10522;52.198;9.890;2023-04-06T10:12:34;8.60;;;5.83;;
20721;SDS011;10522;52.198;9.890;2023-04-06T10:15:02;10.17;;;6.20;;
20721;SDS011;10522;52.198;9.890;2023-04-06T10:17:28;13.10;;;6.57;;
20721;SDS011;10522;52.198;9.890;2023-04-06T10:20:02;10.87;;;6.63;;
20721;SDS011;10522;52.198;9.890;2023-04-06T10:23:19;12.40;;;6.33;;
20721;SDS011;10522;52.198;9.890;2023-04-06T10:25:55;8.60;;;5.63;;
20721;SDS011;10522;52.198;9.890;2023-04-06T10:28:22;9.60;;;6.30;;
20721;SDS011;10522;52.198;9.890;2023-04-06T10:30:49;8.70;;;5.77;;
20721;SDS011;10522;52.198;9.890;2023-04-06T10:33:15;8.83;;;5.67;;
20721;SDS011;10522;52.198;9.890;2023-04-06T10:35:41;9.40;;;6.37;;
20721;SDS011;10522;52.198;9.890;2023-04-06T10:38:07;8.97;;;6.37;;
20721;SDS011;10522;52.198;9.890;2023-04-06T10:40:37;9.07;;;5.53;;
20721;SDS011;10522;52.198;9.890;2023-04-06T10:43:10;9.17;;;6.23;;
20721;SDS011;10522;52.198;9.890;2023-04-06T10:45:37;13.87;;;7.67;;
20721;SDS011;10522;52.198;9.890;2023-04-06T10:48:14;13.10;;;7.33;;
20721;SDS011;10522;52.198;9.890;2023-04-06T10:50:41;7.50;;;5.57;;
20721;SDS011;10522;52.198;9.890;2023-04-06T10:53:11;10.53;;;6.77;;
20721;SDS011;10522;52.198;9.890;2023-04-06T10:55:38;9.73;;;6.23;;
20721;SDS011;10522;52.198;9.890;2023-04-06T10:58:06;11.60;;;6.87;;
20721;SDS011;10522;52.198;9.890;2023-04-06T11:00:32;9.37;;;6.43;;
20721;SDS011;10522;52.198;9.890;2023-04-06T11:03:01;11.73;;;6.70;;
20721;SDS011;10522;52.198;9.890;2023-04-06T11:05:27;8.43;;;5.87;;
20721;SDS011;10522;52.198;9.890;2023-04-06T11:07:53;11.30;;;6.63;;
20721;SDS011;10522;52.198;9.890;2023-04-06T11:10:22;10.67;;;6.47;;
20721;SDS011;10522;52.198;9.890;2023-04-06T11:12:52;9.27;;;6.67;;
20721;SDS011;10522;52.198;9.890;2023-04-06T11:15:19;12.90;;;7.80;;
20721;SDS011;10522;52.198;9.890;2023-04-06T11:17:45;10.87;;;7.73;;
20721;SDS011;10522;52.198;9.890;2023-04-06T11:20:11;10.33;;;7.30;;
20721;SDS011;10522;52.198;9.890;2023-04-06T11:22:47;12.00;;;7.03;;
20721;SDS011;10522;52.198;9.890;2023-04-06T11:25:16;11.07;;;8.00;;
20721;SDS011;10522;52.198;9.890;2023-04-06T11:27:42;10.47;;;7.17;;
20721;SDS011;10522;52.198;9.890;2023-04-06T11:30:09;10.77;;;7.43;;
20721;SDS011;10522;52.198;9.890;2023-04-06T11:32:39;11.10;;;7.57;;
20721;SDS011;10522;52.198;9.890;2023-04-06T11:35:27;11.53;;;7.40;;
20721;SDS011;10522;52.198;9.890;2023-04-06T11:37:56;12.93;;;8.03;;
20721;SDS011;10522;52.198;9.890;2023-04-06T11:40:22;11.93;;;7.17;;
20721;SDS011;10522;52.198;9.890;2023-04-06T11:42:52;11.03;;;7.43;;
20721;SDS011;10522;52.198;9.890;2023-04-06T11:45:19;9.43;;;6.73;;
20721;SDS011;10522;52.198;9.890;2023-04-06T11:47:44;11.83;;;7.90;;
20721;SDS011;10522;52.198;9.890;2023-04-06T11:50:11;10.47;;;8.17;;
20721;SDS011;10522;52.198;9.890;2023-04-06T11:52:38;12.03;;;7.60;;
20721;SDS011;10522;52.198;9.890;2023-04-06T11:55:12;10.07;;;7.20;;
20721;SDS011;10522;52.198;9.890;2023-04-06T11:57:42;12.27;;;6.70;;
20721;SDS011;10522;52.198;9.890;2023-04-06T12:00:08;13.50;;;8.17;;
20721;SDS011;10522;52.198;9.890;2023-04-06T12:02:35;11.97;;;7.87;;
20721;SDS011;10522;52.198;9.890;2023-04-06T12:05:02;11.10;;;7.07;;
20721;SDS011;10522;52.198;9.890;2023-04-06T12:07:30;10.40;;;7.97;;
20721;SDS011;10522;52.198;9.890;2023-04-06T12:09:55;11.83;;;7.67;;
20721;SDS011;10522;52.198;9.890;2023-04-06T12:12:21;11.50;;;8.03;;
20721;SDS011;10522;52.198;9.890;2023-04-06T12:14:47;10.33;;;7.80;;
20721;SDS011;10522;52.198;9.890;2023-04-06T12:17:12;14.30;;;8.50;;
20721;SDS011;10522;52.198;9.890;2023-04-06T12:19:38;15.73;;;8.77;;
20721;SDS011;10522;52.198;9.890;2023-04-06T12:22:03;12.67;;;9.00;;
20721;SDS011;10522;52.198;9.890;2023-04-06T12:24:30;10.93;;;8.13;;
20721;SDS011;10522;52.198;9.890;2023-04-06T12:26:55;10.93;;;8.27;;
20721;SDS011;10522;52.198;9.890;2023-04-06T12:29:22;14.37;;;7.60;;
20721;SDS011;10522;52.198;9.890;2023-04-06T12:31:48;12.20;;;7.63;;
20721;SDS011;10522;52.198;9.890;2023-04-06T12:34:14;12.03;;;8.37;;
20721;SDS011;10522;52.198;9.890;2023-04-06T12:36:40;11.87;;;7.63;;
20721;SDS011;10522;52.198;9.890;2023-04-06T12:39:05;11.40;;;7.57;;
20721;SDS011;10522;52.198;9.890;2023-04-06T12:41:31;12.63;;;7.93;;
20721;SDS011;10522;52.198;9.890;2023-04-06T12:43:57;11.90;;;8.53;;
20721;SDS011;10522;52.198;9.890;2023-04-06T12:46:24;10.13;;;8.17;;
20721;SDS011;10522;52.198;9.890;2023-04-06T12:48:50;16.07;;;9.00;;
20721;SDS011;10522;52.198;9.890;2023-04-06T12:51:18;11.43;;;8.23;;
20721;SDS011;10522;52.198;9.890;2023-04-06T12:53:44;12.83;;;7.97;;
20721;SDS011;10522;52.198;9.890;2023-04-06T12:56:14;17.17;;;8.87;;
20721;SDS011;10522;52.198;9.890;2023-04-06T12:58:42;13.70;;;8.47;;
20721;SDS011;10522;52.198;9.890;2023-04-06T13:01:08;11.67;;;8.03;;
20721;SDS011;10522;52.198;9.890;2023-04-06T13:03:35;10.63;;;7.97;;
20721;SDS011;10522;52.198;9.890;2023-04-06T13:06:01;11.50;;;8.07;;
20721;SDS011;10522;52.198;9.890;2023-04-06T13:08:27;9.57;;;7.33;;
20721;SDS011;10522;52.198;9.890;2023-04-06T13:10:53;10.97;;;7.20;;
20721;SDS011;10522;52.198;9.890;2023-04-06T13:13:26;11.47;;;6.97;;
20721;SDS011;10522;52.198;9.890;2023-04-06T13:15:53;9.73;;;7.47;;
20721;SDS011;10522;52.198;9.890;2023-04-06T13:18:20;10.77;;;7.27;;
20721;SDS011;10522;52.198;9.890;2023-04-06T13:20:47;11.77;;;8.23;;
20721;SDS011;10522;52.198;9.890;2023-04-06T13:23:13;11.67;;;8.17;;
20721;SDS011;10522;52.198;9.890;2023-04-06T13:25:39;11.53;;;7.50;;
20721;SDS011;10522;52.198;9.890;2023-04-06T13:28:05;12.43;;;7.50;;
20721;SDS011;10522;52.198;9.890;2023-04-06T13:30:32;10.53;;;7.43;;
20721;SDS011;10522;52.198;9.890;2023-04-06T13:32:58;10.13;;;7.00;;
20721;SDS011;10522;52.198;9.890;2023-04-06T13:35:23;12.13;;;7.33;;
20721;SDS011;10522;52.198;9.890;2023-04-06T13:37:49;8.80;;;6.90;;
20721;SDS011;10522;52.198;9.890;2023-04-06T13:40:17;10.53;;;7.30;;
20721;SDS011;10522;52.198;9.890;2023-04-06T13:42:43;8.70;;;6.53;;
20721;SDS011;10522;52.198;9.890;2023-04-06T13:45:10;10.50;;;6.87;;
20721;SDS011;10522;52.198;9.890;2023-04-06T13:47:36;11.13;;;6.47;;
20721;SDS011;10522;52.198;9.890;2023-04-06T13:50:01;9.80;;;6.60;;
20721;SDS011;10522;52.198;9.890;2023-04-06T13:52:28;9.30;;;7.30;;
20721;SDS011;10522;52.198;9.890;2023-04-06T13:54:54;10.10;;;6.97;;
20721;SDS011;10522;52.198;9.890;2023-04-06T13:57:19;9.77;;;6.80;;
20721;SDS011;10522;52.198;9.890;2023-04-06T13:59:45;13.90;;;7.37;;
20721;SDS011;10522;52.198;9.890;2023-04-06T14:02:11;12.47;;;7.30;;
20721;SDS011;10522;52.198;9.890;2023-04-06T14:04:36;11.17;;;7.40;;
20721;SDS011;10522;52.198;9.890;2023-04-06T14:07:02;9.27;;;7.00;;
20721;SDS011;10522;52.198;9.890;2023-04-06T14:09:28;10.17;;;6.63;;
20721;SDS011;10522;52.198;9.890;2023-04-06T14:11:54;10.43;;;6.53;;
20721;SDS011;10522;52.198;9.890;2023-04-06T14:14:21;9.87;;;6.70;;
20721;SDS011;10522;52.198;9.890;2023-04-06T14:16:48;9.67;;;6.40;;
20721;SDS011;10522;52.198;9.890;2023-04-06T14:19:14;10.00;;;7.10;;
20721;SDS011;10522;52.198;9.890;2023-04-06T14:21:45;12.90;;;7.33;;
20721;SDS011;10522;52.198;9.890;2023-04-06T14:24:12;9.60;;;6.90;;
20721;SDS011;10522;52.198;9.890;2023-04-06T14:26:39;9.27;;;6.70;;
20721;SDS011;10522;52.198;9.890;2023-04-06T14:29:06;11.70;;;6.73;;
20721;SDS011;10522;52.198;9.890;2023-04-06T14:31:32;10.23;;;6.87;;
20721;SDS011;10522;52.198;9.890;2023-04-06T14:34:00;13.77;;;6.87;;
20721;SDS011;10522;52.198;9.890;2023-04-06T14:36:27;12.03;;;6.60;;
20721;SDS011;10522;52.198;9.890;2023-04-06T14:38:54;11.37;;;7.07;;
20721;SDS011;10522;52.198;9.890;2023-04-06T14:41:22;11.73;;;7.00;;
20721;SDS011;10522;52.198;9.890;2023-04-06T14:43:48;8.97;;;6.37;;
20721;SDS011;10522;52.198;9.890;2023-04-06T14:46:15;10.77;;;7.40;;